Time;durP1;ratioP1;P1;durP2;ratioP2;P2;SDS_P1;SDS_P2;PMS_P1;PMS_P2;Temp;Humidity;BMP_temperature;BMP_pressure;BME280_temperature;BME280_humidity;BME280_pressure;Samples;Min_cycle;Max_cycle;Signal;HPM_P1;HPM_P2
2024/03/23 00:00:35;;;;;;;;;;;;;;;9.95;77.65;99235.34;5093442;28;19920;-66
2024/03/23 00:03:03;;;;;;;;;;;;;;;9.98;77.07;99236.16;5093825;28;19920;-66
2024/03/23 00:05:33;;;;;;;;;;;;;;;9.99;77.12;99227.66;5060179;28;20289;-66
2024/03/23 00:08:01;;;;;;;;;;;;;;;10.00;77.16;99238.72;5093667;28;19920;-66
2024/03/23 00:10:31;;;;;;;;;;;;;;;9.99;77.17;99231.91;5093869;28;20377;-65
2024/03/23 00:13:02;;;;;;;;;;;;;;;9.99;77.52;99232.75;5093620;28;20034;-66
2024/03/23 00:15:33;;;;;;;;;;;;;;;10.00;77.43;99223.41;5059856;28;20331;-66
2024/03/23 00:18:01;;;;;;;;;;;;;;;10.00;77.54;99223.41;5093570;28;20386;-65
2024/03/23 00:20:30;;;;;;;;;;;;;;;10.01;77.36;99218.31;5093218;28;20396;-66
2024/03/23 00:22:58;;;;;;;;;;;;;;;10.03;76.89;99218.28;5093559;28;19920;-66
2024/03/23 00:25:28;;;;;;;;;;;;;;;10.00;77.57;99203.03;5093947;28;20032;-66
2024/03/23 00:27:57;;;;;;;;;;;;;;;9.99;77.39;99201.31;5093388;28;20392;-66
2024/03/23 00:30:26;;;;;;;;;;;;;;;9.96;77.27;99201.34;5093427;28;19920;-66
2024/03/23 00:32:54;;;;;;;;;;;;;;;9.90;77.69;99196.28;5092926;28;20389;-65
2024/03/23 00:35:23;;;;;;;;;;;;;;;9.89;77.19;99190.34;5093021;28;19920;-66
2024/03/23 00:37:52;;;;;;;;;;;;;;;9.88;77.48;99182.72;5093313;28;19965;-66
2024/03/23 00:40:21;;;;;;;;;;;;;;;9.84;77.57;99175.91;5076526;28;19931;-66
2024/03/23 00:42:49;;;;;;;;;;;;;;;9.81;77.42;99175.97;5093209;28;20402;-65
2024/03/23 00:45:18;;;;;;;;;;;;;;;9.78;77.16;99175.97;5077355;28;20270;-66
2024/03/23 00:47:47;;;;;;;;;;;;;;;9.74;77.51;99174.31;5093235;28;19919;-66
2024/03/23 00:50:17;;;;;;;;;;;;;;;9.71;77.60;99174.31;5093190;28;19920;-66
2024/03/23 00:52:45;;;;;;;;;;;;;;;9.70;77.52;99167.50;5093135;28;20381;-66
2024/03/23 00:55:12;;;;;;;;;;;;;;;9.67;77.82;99167.53;5092583;28;19920;-65
2024/03/23 00:57:39;;;;;;;;;;;;;;;9.65;77.80;99169.22;5093462;28;20010;-66
2024/03/23 01:00:10;;;;;;;;;;;;;;;9.58;77.72;99170.13;5076339;28;19927;-66
2024/03/23 01:02:36;;;;;;;;;;;;;;;9.53;77.76;99164.19;5094187;28;19920;-66
2024/03/23 01:05:03;;;;;;;;;;;;;;;9.52;78.20;99162.53;5080324;28;19927;-66
2024/03/23 01:07:30;;;;;;;;;;;;;;;9.52;78.06;99162.53;5097308;28;19920;-66
2024/03/23 01:09:59;;;;;;;;;;;;;;;9.53;78.72;99154.00;5097111;28;19920;-66
2024/03/23 01:12:25;;;;;;;;;;;;;;;9.52;78.32;99148.09;5096631;28;20032;-66
2024/03/23 01:14:53;;;;;;;;;;;;;;;9.50;78.31;99139.63;5079975;28;20343;-66
2024/03/23 01:17:19;;;;;;;;;;;;;;;9.50;78.89;99138.75;5097020;28;19924;-66
2024/03/23 01:19:47;;;;;;;;;;;;;;;9.48;78.82;99140.47;5096967;28;19920;-66
2024/03/23 01:22:13;;;;;;;;;;;;;;;9.48;78.25;99145.56;5079854;28;19920;-66
2024/03/23 01:24:40;;;;;;;;;;;;;;;9.44;78.78;99137.94;5096819;28;19920;-66
2024/03/23 01:27:09;;;;;;;;;;;;;;;9.42;78.34;99144.75;5096682;28;19948;-66
2024/03/23 01:29:36;;;;;;;;;;;;;;;9.36;78.75;99134.56;5097070;28;19969;-65
2024/03/23 01:32:03;;;;;;;;;;;;;;;9.37;79.23;99127.78;5096361;28;19927;-66
2024/03/23 01:34:30;;;;;;;;;;;;;;;9.38;78.86;99119.31;5096458;28;19924;-66
2024/03/23 01:36:57;;;;;;;;;;;;;;;9.37;78.80;99127.78;5079788;28;19927;-66
2024/03/23 01:39:24;;;;;;;;;;;;;;;9.31;79.23;99121.00;5097089;28;19924;-66
2024/03/23 01:41:52;;;;;;;;;;;;;;;9.35;79.06;99120.16;5096810;28;19982;-66
2024/03/23 01:44:19;;;;;;;;;;;;;;;9.36;78.98;99116.75;5096411;28;19924;-66
2024/03/23 01:46:47;;;;;;;;;;;;;;;9.34;79.24;99118.47;5096389;28;19919;-66
2024/03/23 01:49:13;;;;;;;;;;;;;;;9.34;78.97;99121.00;5096280;28;19920;-66
2024/03/23 01:51:42;;;;;;;;;;;;;;;9.34;79.55;99126.09;5096143;28;19935;-65
2024/03/23 01:54:09;;;;;;;;;;;;;;;9.28;79.55;99118.50;5096211;28;19920;-66
2024/03/23 01:56:37;;;;;;;;;;;;;;;9.22;79.57;99113.41;5094865;28;19919;-66
2024/03/23 01:59:03;;;;;;;;;;;;;;;9.19;79.45;99113.44;5095556;28;20262;-65
2024/03/23 02:01:32;;;;;;;;;;;;;;;9.21;79.16;99106.63;5094562;28;19928;-66
2024/03/23 02:03:59;;;;;;;;;;;;;;;9.24;79.32;99105.75;5094940;28;19924;-66
2024/03/23 02:06:26;;;;;;;;;;;;;;;9.20;80.04;99099.00;5077157;28;19986;-66
2024/03/23 02:08:53;;;;;;;;;;;;;;;9.17;79.83;99102.41;5094542;28;19926;-66
2024/03/23 02:11:20;;;;;;;;;;;;;;;9.16;79.38;99093.09;5078062;28;19927;-66
2024/03/23 02:13:47;;;;;;;;;;;;;;;9.12;80.05;99091.41;5077401;28;19919;-66
2024/03/23 02:16:14;;;;;;;;;;;;;;;9.07;80.25;99082.94;5061312;28;19920;-65
2024/03/23 02:18:42;;;;;;;;;;;;;;;9.07;80.03;99072.75;5094677;28;19924;-65
2024/03/23 02:21:09;;;;;;;;;;;;;;;9.07;80.18;99072.75;5094652;28;19924;-66
2024/03/23 02:23:37;;;;;;;;;;;;;;;9.06;80.58;99060.91;5094664;28;20348;-66
2024/03/23 02:26:04;;;;;;;;;;;;;;;9.07;80.62;99057.47;5077809;28;19927;-66
2024/03/23 02:28:31;;;;;;;;;;;;;;;9.05;80.61;99049.00;5094544;28;20040;-66
2024/03/23 02:31:00;;;;;;;;;;;;;;;9.07;79.92;99056.66;5094473;28;19920;-67
2024/03/23 02:33:26;;;;;;;;;;;;;;;9.08;80.69;99053.25;5077507;28;19969;-66
2024/03/23 02:35:57;;;;;;;;;;;;;;;9.09;80.62;99058.34;5094386;28;19927;-66
2024/03/23 02:38:24;;;;;;;;;;;;;;;9.08;80.78;99059.19;5094358;28;19920;-65
2024/03/23 02:40:52;;;;;;;;;;;;;;;9.08;80.68;99058.34;5094378;28;19920;-66
2024/03/23 02:43:19;;;;;;;;;;;;;;;9.06;80.24;99055.81;5094268;28;19930;-66
2024/03/23 02:45:46;;;;;;;;;;;;;;;9.05;80.98;99045.63;5094354;28;19920;-66
2024/03/23 02:48:13;;;;;;;;;;;;;;;9.02;80.06;99038.84;5077341;28;19920;-66
2024/03/23 02:50:40;;;;;;;;;;;;;;;9.00;81.16;99040.53;5060774;28;20267;-66
2024/03/23 02:53:07;;;;;;;;;;;;;;;8.98;80.94;99037.16;5077132;28;19920;-66
2024/03/23 02:55:34;;;;;;;;;;;;;;;8.95;81.19;99036.34;5025613;28;1465175;-66
2024/03/23 02:58:02;;;;;;;;;;;;;;;9.00;81.17;99034.63;5095029;28;19920;-66
2024/03/23 03:00:29;;;;;;;;;;;;;;;9.00;81.10;99027.81;5094959;28;20370;-66
2024/03/23 03:02:56;;;;;;;;;;;;;;;9.01;80.95;99031.22;5094600;28;20294;-66
2024/03/23 03:05:23;;;;;;;;;;;;;;;9.01;81.19;99029.53;5078422;28;20354;-66
2024/03/23 03:07:49;;;;;;;;;;;;;;;9.03;80.61;99026.97;5094804;28;19931;-66
2024/03/23 03:10:17;;;;;;;;;;;;;;;9.05;81.24;99028.66;5061521;28;19935;-66
2024/03/23 03:12:43;;;;;;;;;;;;;;;9.05;80.95;99027.78;5095028;28;19927;-66
2024/03/23 03:15:12;;;;;;;;;;;;;;;9.08;81.12;99028.66;5094381;28;19920;-66
2024/03/23 03:17:39;;;;;;;;;;;;;;;9.03;80.55;99020.19;5061228;28;19924;-66
2024/03/23 03:20:06;;;;;;;;;;;;;;;9.03;80.92;99022.72;5094243;28;19927;-66
2024/03/23 03:22:34;;;;;;;;;;;;;;;8.98;80.24;99026.13;5094553;28;19920;-66
2024/03/23 03:25:02;;;;;;;;;;;;;;;8.98;80.43;99015.97;5093416;28;19926;-65
2024/03/23 03:27:31;;;;;;;;;;;;;;;8.96;80.70;99018.53;5094398;28;19924;-66
2024/03/23 03:29:57;;;;;;;;;;;;;;;9.02;80.78;99013.38;5094434;28;20025;-66
2024/03/23 03:32:26;;;;;;;;;;;;;;;9.06;80.39;99015.09;5094414;28;19974;-66
2024/03/23 03:34:53;;;;;;;;;;;;;;;9.07;80.51;99005.75;5077003;28;20290;-66
2024/03/23 03:37:20;;;;;;;;;;;;;;;9.09;80.66;99004.91;5094223;28;20312;-66
2024/03/23 03:39:46;;;;;;;;;;;;;;;9.08;80.92;99002.34;5093896;28;19920;-66
2024/03/23 03:42:15;;;;;;;;;;;;;;;9.08;80.52;99002.34;5094205;28;19926;-66
2024/03/23 03:44:42;;;;;;;;;;;;;;;9.11;80.63;99000.63;5094165;28;19920;-66
2024/03/23 03:47:09;;;;;;;;;;;;;;;9.12;80.11;98999.75;5094028;28;20023;-66
2024/03/23 03:49:37;;;;;;;;;;;;;;;9.09;80.43;98999.81;5094019;28;19927;-65
2024/03/23 03:52:04;;;;;;;;;;;;;;;9.09;80.80;98989.63;5094077;28;19927;-66
2024/03/23 03:54:31;;;;;;;;;;;;;;;9.11;80.85;98989.59;5093854;28;20427;-66
2024/03/23 03:56:58;;;;;;;;;;;;;;;9.10;80.77;98986.19;5093587;28;20405;-66
2024/03/23 03:59:25;;;;;;;;;;;;;;;9.11;80.80;98992.16;5077123;28;19919;-65
2024/03/23 04:01:52;;;;;;;;;;;;;;;9.09;80.69;98989.63;5076924;28;19920;-66
2024/03/23 04:04:18;;;;;;;;;;;;;;;9.04;81.28;98991.34;5093837;28;19927;-66
2024/03/23 04:06:47;;;;;;;;;;;;;;;9.04;80.57;98986.25;5093947;28;19927;-66
2024/03/23 04:09:15;;;;;;;;;;;;;;;9.00;81.36;98984.56;5093900;28;19924;-66
2024/03/23 04:11:42;;;;;;;;;;;;;;;9.00;81.62;98984.56;5093642;28;19963;-66
2024/03/23 04:14:08;;;;;;;;;;;;;;;8.99;81.66;98979.50;5093269;28;19927;-65
2024/03/23 04:16:36;;;;;;;;;;;;;;;8.98;81.32;98981.19;5093773;28;19920;-66
2024/03/23 04:19:03;;;;;;;;;;;;;;;9.00;80.65;98984.56;5093563;28;19924;-66
2024/03/23 04:21:31;;;;;;;;;;;;;;;8.95;81.61;98976.09;5093552;28;20089;-66
2024/03/23 04:23:59;;;;;;;;;;;;;;;8.90;81.68;98975.28;5093533;28;19919;-65
2024/03/23 04:26:26;;;;;;;;;;;;;;;8.89;81.44;98981.25;5093311;28;20057;-66
2024/03/23 04:28:53;;;;;;;;;;;;;;;8.90;81.39;98974.47;5093366;28;19973;-66
2024/03/23 04:31:21;;;;;;;;;;;;;;;8.83;80.97;98971.09;5093008;28;19923;-66
2024/03/23 04:33:47;;;;;;;;;;;;;;;8.82;81.26;98981.28;5076478;28;19920;-66
2024/03/23 04:36:15;;;;;;;;;;;;;;;8.83;81.57;98986.34;5058908;28;19920;-66
2024/03/23 04:38:42;;;;;;;;;;;;;;;8.80;82.26;98986.38;5076542;28;19920;-66
2024/03/23 04:41:12;;;;;;;;;;;;;;;8.81;82.48;98975.34;5076783;28;19920;-66
2024/03/23 04:43:40;;;;;;;;;;;;;;;8.80;81.82;98971.13;5093023;28;19923;-66
2024/03/23 04:46:07;;;;;;;;;;;;;;;8.72;82.70;98967.75;5059829;28;19920;-66
2024/03/23 04:48:36;;;;;;;;;;;;;;;8.71;82.88;98976.22;5093136;28;20286;-66
2024/03/23 04:51:03;;;;;;;;;;;;;;;8.72;83.26;98975.38;5075986;28;19920;-66
2024/03/23 04:53:31;;;;;;;;;;;;;;;8.74;82.78;98971.13;5076254;28;19920;-66
2024/03/23 04:55:59;;;;;;;;;;;;;;;8.74;82.47;98973.69;5092436;28;20045;-65
2024/03/23 04:58:28;;;;;;;;;;;;;;;8.67;82.60;98972.88;5093090;28;19926;-66
2024/03/23 05:00:56;;;;;;;;;;;;;;;8.66;83.63;98967.81;5093327;28;19948;-66
2024/03/23 05:03:23;;;;;;;;;;;;;;;8.67;83.23;98964.38;5093006;28;19977;-66
2024/03/23 05:05:50;;;;;;;;;;;;;;;8.67;83.51;98964.38;5093097;28;19926;-66
2024/03/23 05:08:17;;;;;;;;;;;;;;;8.66;83.45;98975.44;5093135;28;19927;-66
2024/03/23 05:10:44;;;;;;;;;;;;;;;8.62;83.09;98978.81;5093033;28;19920;-65
2024/03/23 05:13:11;;;;;;;;;;;;;;;8.67;83.40;98974.56;5076201;28;19920;-66
2024/03/23 05:15:39;;;;;;;;;;;;;;;8.72;83.16;98962.66;5092987;28;20011;-66
2024/03/23 05:18:07;;;;;;;;;;;;;;;8.74;83.05;98960.97;5092543;28;19927;-66
2024/03/23 05:20:33;;;;;;;;;;;;;;;8.76;83.88;98959.25;5075756;28;20344;-66
2024/03/23 05:23:00;;;;;;;;;;;;;;;8.80;83.40;98966.03;5092507;28;20324;-66
2024/03/23 05:25:27;;;;;;;;;;;;;;;8.84;83.04;98957.53;5092879;28;20014;-66
2024/03/23 05:27:54;;;;;;;;;;;;;;;8.94;83.04;98954.06;5092587;28;19927;-66
2024/03/23 05:30:20;;;;;;;;;;;;;;;8.96;83.31;98957.44;5093309;28;20003;-66
2024/03/23 05:32:49;;;;;;;;;;;;;;;8.94;83.50;98946.44;5075967;28;19930;-66
2024/03/23 05:35:16;;;;;;;;;;;;;;;8.83;83.23;98935.47;5092909;28;19919;-66
2024/03/23 05:37:43;;;;;;;;;;;;;;;8.81;82.53;98937.19;5092838;28;19924;-66
2024/03/23 05:40:10;;;;;;;;;;;;;;;8.87;83.20;98946.47;5093020;28;20382;-66
2024/03/23 05:42:38;;;;;;;;;;;;;;;8.94;83.28;98943.03;5093103;28;19920;-66
2024/03/23 05:45:06;;;;;;;;;;;;;;;9.00;83.02;98928.56;5075867;28;20015;-66
2024/03/23 05:47:33;;;;;;;;;;;;;;;9.05;83.33;98921.75;5092609;28;19920;-66
2024/03/23 05:50:02;;;;;;;;;;;;;;;9.07;82.86;98909.84;5095478;28;20354;-66
2024/03/23 05:52:30;;;;;;;;;;;;;;;9.05;82.52;98898.00;5096145;28;20297;-66
2024/03/23 05:54:58;;;;;;;;;;;;;;;9.04;82.78;98909.91;5095905;28;19920;-66
2024/03/23 05:57:25;;;;;;;;;;;;;;;9.11;82.85;98925.97;5096107;28;20374;-66
2024/03/23 05:59:52;;;;;;;;;;;;;;;9.17;82.22;98924.22;5062742;28;20061;-67
2024/03/23 06:02:20;;;;;;;;;;;;;;;9.24;82.22;98920.75;5096135;28;19927;-66
2024/03/23 06:04:47;;;;;;;;;;;;;;;9.32;82.19;98924.09;5079369;28;19920;-66
2024/03/23 06:07:16;;;;;;;;;;;;;;;9.40;82.49;98914.72;5096363;28;19920;-66
2024/03/23 06:09:43;;;;;;;;;;;;;;;9.49;82.05;98923.09;5095866;28;20431;-66
2024/03/23 06:12:10;;;;;;;;;;;;;;;9.50;81.92;98906.97;5095925;28;19920;-66
2024/03/23 06:14:37;;;;;;;;;;;;;;;9.51;81.55;98913.75;5095816;28;19920;-66
2024/03/23 06:17:04;;;;;;;;;;;;;;;9.55;81.86;98907.78;5095834;28;19924;-66
2024/03/23 06:19:32;;;;;;;;;;;;;;;9.64;81.74;98905.16;5095861;28;19924;-66
2024/03/23 06:21:59;;;;;;;;;;;;;;;9.72;81.48;98903.34;5096080;28;19920;-66
2024/03/23 06:24:27;;;;;;;;;;;;;;;9.77;81.70;98914.34;5078919;28;19920;-66
2024/03/23 06:26:54;;;;;;;;;;;;;;;9.85;81.38;98907.47;5078462;28;19920;-66
2024/03/23 06:29:20;;;;;;;;;;;;;;;9.90;81.81;98900.63;5095366;28;20366;-66
2024/03/23 06:31:54;;;;;;;;;;;;;;;9.92;81.02;98898.91;5095803;28;19920;-66
2024/03/23 06:34:22;;;;;;;;;;;;;;;9.91;81.49;98897.25;5095244;28;19963;-66
2024/03/23 06:36:49;;;;;;;;;;;;;;;9.91;80.63;98902.34;5095079;28;19923;-66
2024/03/23 06:39:15;;;;;;;;;;;;;;;9.96;80.55;98895.44;5095554;28;20282;-66
2024/03/23 06:41:52;;;;;;;;;;;;;;;10.00;80.39;98897.13;5095452;28;19924;-66
2024/03/23 06:44:19;;;;;;;;;;;;;;;10.06;80.69;98897.03;5094972;28;19920;-66
2024/03/23 06:46:46;;;;;;;;;;;;;;;10.08;80.89;98905.50;5078391;28;19974;-66
2024/03/23 06:49:13;;;;;;;;;;;;;;;10.13;80.15;98897.84;5095321;28;20293;-66
2024/03/23 06:51:40;;;;;;;;;;;;;;;10.15;80.13;98902.06;5077988;28;19927;-66
2024/03/23 06:54:07;;;;;;;;;;;;;;;10.19;80.31;98902.88;5075295;28;19951;-66
2024/03/23 06:56:33;;;;;;;;;;;;;;;10.21;79.79;98891.81;5074474;28;19924;-66
2024/03/23 06:59:03;;;;;;;;;;;;;;;10.23;80.05;98890.09;5075684;28;19959;-66
2024/03/23 07:01:29;;;;;;;;;;;;;;;10.19;79.61;98883.34;5056897;28;19920;-66
2024/03/23 07:03:57;;;;;;;;;;;;;;;10.19;79.67;98892.69;5074679;28;19920;-66
2024/03/23 07:06:23;;;;;;;;;;;;;;;10.21;79.59;98896.91;5074605;28;19966;-66
2024/03/23 07:08:51;;;;;;;;;;;;;;;10.26;79.19;98884.94;5058222;28;20382;-66
2024/03/23 07:11:21;;;;;;;;;;;;;;;10.26;79.17;98884.09;5057763;28;19920;-66
2024/03/23 07:13:50;;;;;;;;;;;;;;;10.31;79.09;98883.19;5074515;28;20355;-65
2024/03/23 07:16:18;;;;;;;;;;;;;;;10.38;78.73;98886.50;5074141;28;20392;-66
2024/03/23 07:18:46;;;;;;;;;;;;;;;10.40;77.97;98883.06;5057736;28;19920;-66
2024/03/23 07:21:12;;;;;;;;;;;;;;;10.45;77.83;98876.19;5074399;28;19956;-65
2024/03/23 07:23:44;;;;;;;;;;;;;;;10.50;77.28;98871.88;5074338;28;19920;-66
2024/03/23 07:26:11;;;;;;;;;;;;;;;10.58;77.00;98875.16;5074363;28;20370;-66
2024/03/23 07:28:42;;;;;;;;;;;;;;;10.66;76.75;98875.91;5056980;28;20340;-66
2024/03/23 07:31:10;;;;;;;;;;;;;;;10.73;76.48;98872.41;5057575;28;19967;-66
2024/03/23 07:33:43;;;;;;;;;;;;;;;10.80;76.36;98867.22;5056649;28;20302;-66
2024/03/23 07:36:09;;;;;;;;;;;;;;;10.93;76.25;98863.59;5073891;28;19943;-66
2024/03/23 07:38:36;;;;;;;;;;;;;;;11.04;76.32;98862.56;5074558;28;19921;-66
2024/03/23 07:41:04;;;;;;;;;;;;;;;11.18;76.46;98864.91;5073891;28;19921;-66
2024/03/23 07:43:31;;;;;;;;;;;;;;;11.28;76.39;98866.44;5073541;28;19950;-66
2024/03/23 07:45:57;;;;;;;;;;;;;;;11.37;76.41;98850.97;5073822;28;19927;-66
2024/03/23 07:48:25;;;;;;;;;;;;;;;11.40;76.17;98850.88;5057108;28;19944;-66
2024/03/23 07:51:00;;;;;;;;;;;;;;;11.42;75.88;98849.19;5073827;28;19932;-66
2024/03/23 07:53:27;;;;;;;;;;;;;;;11.49;75.68;98845.63;5057146;28;20287;-66
2024/03/23 07:55:57;;;;;;;;;;;;;;;11.59;75.74;98842.03;5073323;28;19974;-66
2024/03/23 07:58:25;;;;;;;;;;;;;;;11.75;75.32;98838.38;5057115;28;19954;-66
2024/03/23 08:00:52;;;;;;;;;;;;;;;11.88;75.16;98842.34;5056954;28;19925;-66
2024/03/23 08:03:19;;;;;;;;;;;;;;;12.01;75.07;98836.16;5073351;28;19952;-66
2024/03/23 08:05:46;;;;;;;;;;;;;;;12.07;74.52;98845.38;5073275;28;19920;-66
2024/03/23 08:08:15;;;;;;;;;;;;;;;12.16;74.36;98844.38;5073040;28;20475;-67
2024/03/23 08:10:48;;;;;;;;;;;;;;;12.30;74.03;98852.59;5074112;28;19968;-67
2024/03/23 08:13:15;;;;;;;;;;;;;;;12.37;73.73;98849.88;5056738;28;19965;-67
2024/03/23 08:15:42;;;;;;;;;;;;;;;12.45;72.80;98842.06;5056249;28;19920;-66
2024/03/23 08:18:10;;;;;;;;;;;;;;;12.50;72.57;98840.22;5056713;28;19920;-66
2024/03/23 08:20:37;;;;;;;;;;;;;;;12.64;72.09;98833.09;5073171;28;19928;-66
2024/03/23 08:23:04;;;;;;;;;;;;;;;12.71;71.66;98835.47;5073272;28;20412;-66
2024/03/23 08:25:32;;;;;;;;;;;;;;;12.84;71.37;98824.94;5056421;28;19936;-66
2024/03/23 08:28:00;;;;;;;;;;;;;;;13.05;70.94;98825.25;5073261;28;20369;-66
2024/03/23 08:30:26;;;;;;;;;;;;;;;13.32;69.91;98814.34;5072952;28;19928;-67
2024/03/23 08:32:53;;;;;;;;;;;;;;;13.37;67.93;98807.38;5056512;28;20443;-67
2024/03/23 08:35:20;;;;;;;;;;;;;;;13.51;67.63;98816.44;5072859;28;19970;-66
2024/03/23 08:37:47;;;;;;;;;;;;;;;13.55;67.00;98815.47;5073080;28;19966;-66
2024/03/23 08:40:14;;;;;;;;;;;;;;;13.59;66.54;98806.81;5055759;28;19927;-66
2024/03/23 08:42:43;;;;;;;;;;;;;;;13.69;66.30;98810.81;5073116;28;19920;-67
2024/03/23 08:45:09;;;;;;;;;;;;;;;13.75;65.96;98800.41;5073063;28;19921;-67
2024/03/23 08:47:37;;;;;;;;;;;;;;;13.82;65.89;98795.03;5039653;28;19921;-67
2024/03/23 08:50:03;;;;;;;;;;;;;;;13.84;65.49;98792.44;5073053;28;20332;-66
2024/03/23 08:52:31;;;;;;;;;;;;;;;13.75;65.24;98790.97;5073015;28;19928;-66
2024/03/23 08:54:57;;;;;;;;;;;;;;;13.87;65.39;98792.34;5073086;28;19920;-67
2024/03/23 08:57:25;;;;;;;;;;;;;;;14.00;65.85;98783.44;5073187;28;19971;-66
2024/03/23 08:59:53;;;;;;;;;;;;;;;13.95;64.94;98785.28;5056048;28;20404;-67
2024/03/23 09:02:20;;;;;;;;;;;;;;;14.02;65.60;98781.66;5073245;28;19962;-67
2024/03/23 09:04:46;;;;;;;;;;;;;;;14.12;66.07;98772.81;5072804;28;20321;-67
2024/03/23 09:07:14;;;;;;;;;;;;;;;14.15;65.71;98766.75;5072831;28;19924;-67
2024/03/23 09:09:40;;;;;;;;;;;;;;;14.15;65.62;98757.31;5072520;28;19925;-67
2024/03/23 09:12:08;;;;;;;;;;;;;;;14.15;66.05;98766.75;5072782;28;20018;-67
2024/03/23 09:14:34;;;;;;;;;;;;;;;14.16;66.65;98764.13;5055952;28;19921;-67
2024/03/23 09:17:03;;;;;;;;;;;;;;;14.27;66.36;98764.66;5072527;28;19920;-67
2024/03/23 09:19:29;;;;;;;;;;;;;;;14.34;66.67;98753.34;5055854;28;20370;-67
2024/03/23 09:21:57;;;;;;;;;;;;;;;14.38;65.83;98747.22;5039689;28;19920;-66
2024/03/23 09:24:23;;;;;;;;;;;;;;;14.42;65.69;98741.09;5074923;28;19985;-67
2024/03/23 09:26:52;;;;;;;;;;;;;;;14.38;65.01;98739.53;5076069;28;19927;-66
2024/03/23 09:29:19;;;;;;;;;;;;;;;14.29;64.82;98737.22;5076150;28;20379;-66
2024/03/23 09:31:46;;;;;;;;;;;;;;;14.28;64.78;98732.97;5076461;28;19920;-67
2024/03/23 09:34:15;;;;;;;;;;;;;;;14.32;65.05;98729.47;5076586;28;20287;-67
2024/03/23 09:36:42;;;;;;;;;;;;;;;14.30;64.62;98727.78;5076061;28;19920;-67
2024/03/23 09:39:09;;;;;;;;;;;;;;;14.32;64.59;98726.91;5075828;28;19924;-67
2024/03/23 09:41:36;;;;;;;;;;;;;;;14.38;64.51;98724.13;5076133;28;20435;-67
2024/03/23 09:44:03;;;;;;;;;;;;;;;14.40;65.04;98717.22;5059368;28;20375;-67
2024/03/23 09:46:34;;;;;;;;;;;;;;;14.42;65.61;98710.28;5076124;28;19920;-67
2024/03/23 09:49:00;;;;;;;;;;;;;;;14.46;65.71;98705.91;5059143;28;20336;-67
2024/03/23 09:51:30;;;;;;;;;;;;;;;14.50;65.73;98703.19;5076318;28;19927;-67
2024/03/23 09:53:56;;;;;;;;;;;;;;;14.55;65.49;98703.03;5076002;28;19927;-67
2024/03/23 09:56:23;;;;;;;;;;;;;;;14.61;65.60;98685.69;5075675;28;19920;-67
2024/03/23 09:58:50;;;;;;;;;;;;;;;14.71;65.81;98671.66;5076041;28;19927;-67
2024/03/23 10:01:17;;;;;;;;;;;;;;;14.84;65.87;98671.25;5076071;28;19942;-66
2024/03/23 10:03:44;;;;;;;;;;;;;;;14.99;65.94;98656.16;5076145;28;19921;-67
2024/03/23 10:06:12;;;;;;;;;;;;;;;15.17;65.91;98650.38;5075745;28;19921;-67
2024/03/23 10:08:40;;;;;;;;;;;;;;;15.33;65.11;98650.66;5076036;28;20283;-67
2024/03/23 10:11:15;;;;;;;;;;;;;;;15.46;64.84;98645.91;5075661;28;19982;-66
2024/03/23 10:13:42;;;;;;;;;;;;;;;15.56;64.20;98642.97;5075364;28;20358;-67
2024/03/23 10:16:10;;;;;;;;;;;;;;;15.62;62.76;98650.44;5075537;28;19920;-66
2024/03/23 10:18:37;;;;;;;;;;;;;;;15.65;62.40;98642.59;5058648;28;20041;-66
2024/03/23 10:21:10;;;;;;;;;;;;;;;15.76;62.23;98637.91;5075662;28;19925;-66
2024/03/23 10:23:38;;;;;;;;;;;;;;;15.99;62.50;98630.13;5058978;28;19920;-66
2024/03/23 10:26:25;;;;;;;;;;;;;;;16.23;61.65;98623.16;5075530;28;19944;-67
2024/03/23 10:28:54;;;;;;;;;;;;;;;16.43;61.18;98617.19;5075496;28;19920;-67
2024/03/23 10:31:21;;;;;;;;;;;;;;;16.48;59.40;98620.44;5075572;28;19932;-67
2024/03/23 10:33:48;;;;;;;;;;;;;;;16.41;58.59;98616.44;5058870;28;20286;-65
2024/03/23 10:36:16;;;;;;;;;;;;;;;16.27;57.98;98605.88;5058037;28;19920;-66
2024/03/23 10:38:43;;;;;;;;;;;;;;;16.31;58.42;98597.09;5075247;28;20370;-66
2024/03/23 10:41:11;;;;;;;;;;;;;;;16.53;58.92;98603.09;5075390;28;19920;-67
2024/03/23 10:43:37;;;;;;;;;;;;;;;16.80;58.93;98595.88;5075099;28;20367;-66
2024/03/23 10:46:06;;;;;;;;;;;;;;;16.98;58.11;98595.94;5074913;28;19924;-67
2024/03/23 10:48:33;;;;;;;;;;;;;;;17.15;57.43;98587.47;5075018;28;19921;-66
2024/03/23 10:51:00;;;;;;;;;;;;;;;17.35;57.35;98585.66;5058448;28;19920;-67
2024/03/23 10:53:27;;;;;;;;;;;;;;;17.47;56.41;98579.09;5041125;28;19967;-67
2024/03/23 10:55:55;;;;;;;;;;;;;;;17.55;56.22;98576.19;5058144;28;19931;-66
2024/03/23 10:58:26;;;;;;;;;;;;;;;17.53;55.52;98573.69;5074828;28;19920;-67
2024/03/23 11:00:55;;;;;;;;;;;;;;;17.40;55.12;98563.06;5074992;28;19959;-67
2024/03/23 11:03:41;;;;;;;;;;;;;;;17.32;55.08;98560.00;5074659;28;20367;-67
2024/03/23 11:06:10;;;;;;;;;;;;;;;17.28;54.78;98548.16;5074683;28;19970;-66
2024/03/23 11:08:37;;;;;;;;;;;;;;;17.30;55.26;98540.34;5074360;28;19920;-66
2024/03/23 11:11:24;;;;;;;;;;;;;;;17.34;54.44;98540.16;5074561;28;20301;-66
2024/03/23 11:13:51;;;;;;;;;;;;;;;17.33;54.97;98530.72;5075089;28;19920;-66
2024/03/23 11:16:22;;;;;;;;;;;;;;;17.36;55.35;98535.75;5074557;28;19943;-66
2024/03/23 11:18:50;;;;;;;;;;;;;;;17.33;55.42;98528.16;5074611;28;20355;-66
2024/03/23 11:21:36;;;;;;;;;;;;;;;17.30;55.40;98515.38;5057777;28;19924;-66
2024/03/23 11:24:21;;;;;;;;;;;;;;;17.33;53.97;98499.78;5041083;28;20283;-67
2024/03/23 11:26:50;;;;;;;;;;;;;;;17.40;54.27;98498.56;5074255;28;19969;-66
2024/03/23 11:29:18;;;;;;;;;;;;;;;17.52;54.71;98493.75;5074229;28;19985;-67
2024/03/23 11:31:47;;;;;;;;;;;;;;;17.54;53.74;98497.94;5074377;28;20385;-66
2024/03/23 11:34:15;;;;;;;;;;;;;;;17.50;52.53;98495.56;5074097;28;19928;-66
2024/03/23 11:36:42;;;;;;;;;;;;;;;17.37;52.44;98492.75;5073667;28;19927;-66
2024/03/23 11:39:13;;;;;;;;;;;;;;;17.36;54.07;98497.06;5074009;28;19920;-66
2024/03/23 11:41:47;;;;;;;;;;;;;;;17.30;53.53;98481.84;5074036;28;19970;-67
2024/03/23 11:44:18;;;;;;;;;;;;;;;17.25;52.88;98486.38;5074227;28;19928;-66
2024/03/23 11:46:46;;;;;;;;;;;;;;;17.20;52.51;98466.91;5073053;28;20330;-66
2024/03/23 11:49:32;;;;;;;;;;;;;;;17.17;52.78;98455.00;5073923;28;19943;-66
2024/03/23 11:51:59;;;;;;;;;;;;;;;17.24;52.41;98433.16;5073916;28;19920;-66
2024/03/23 11:54:26;;;;;;;;;;;;;;;17.43;51.01;98431.38;5073741;28;19920;-67
2024/03/23 11:56:57;;;;;;;;;;;;;;;17.61;52.26;98426.25;5073320;28;19956;-66
2024/03/23 11:59:31;;;;;;;;;;;;;;;17.68;51.73;98412.16;5073767;28;19924;-65
2024/03/23 12:01:59;;;;;;;;;;;;;;;17.68;50.45;98412.97;5073587;28;19959;-66
2024/03/23 12:04:26;;;;;;;;;;;;;;;17.81;50.99;98415.75;5073483;28;19935;-66
2024/03/23 12:07:08;;;;;;;;;;;;;;;17.90;50.85;98412.75;5056846;28;19927;-66
2024/03/23 12:09:35;;;;;;;;;;;;;;;17.88;50.62;98399.06;5073757;28;19934;-66
2024/03/23 12:12:06;;;;;;;;;;;;;;;17.83;50.57;98395.88;5073451;28;19920;-66
2024/03/23 12:14:37;;;;;;;;;;;;;;;17.78;51.17;98395.28;5056910;28;19955;-67
2024/03/23 12:17:09;;;;;;;;;;;;;;;17.77;50.87;98386.72;5073130;28;20384;-66
2024/03/23 12:19:35;;;;;;;;;;;;;;;17.84;52.26;98388.06;5073230;28;20369;-67
2024/03/23 12:22:04;;;;;;;;;;;;;;;17.93;52.91;98391.91;5073287;28;19920;-67
2024/03/23 12:24:30;;;;;;;;;;;;;;;18.00;52.33;98382.94;5073524;28;19944;-66
2024/03/23 12:27:00;;;;;;;;;;;;;;;18.02;52.10;98388.84;5073167;28;19970;-66
2024/03/23 12:29:28;;;;;;;;;;;;;;;18.00;52.35;98375.19;5073123;28;19969;-67
2024/03/23 12:31:57;;;;;;;;;;;;;;;18.08;52.99;98375.66;5056611;28;19921;-65
2024/03/23 12:34:23;;;;;;;;;;;;;;;17.92;53.34;98379.94;5073223;28;19931;-66
2024/03/23 12:36:51;;;;;;;;;;;;;;;17.89;52.86;98385.25;5073279;28;19924;-66
2024/03/23 12:39:18;;;;;;;;;;;;;;;17.87;52.73;98387.06;5073070;28;19920;-67
2024/03/23 12:41:46;;;;;;;;;;;;;;;17.87;54.07;98392.25;5056337;28;19927;-66
2024/03/23 12:44:13;;;;;;;;;;;;;;;17.83;53.52;98385.53;5072964;28;19925;-66
2024/03/23 12:46:40;;;;;;;;;;;;;;;17.86;53.99;98388.81;5056263;28;19920;-66
2024/03/23 12:49:08;;;;;;;;;;;;;;;18.07;52.94;98382.56;5056437;28;19921;-67
2024/03/23 12:51:36;;;;;;;;;;;;;;;18.51;52.68;98385.41;5072817;28;19924;-66
2024/03/23 12:54:02;;;;;;;;;;;;;;;18.93;52.86;98392.59;5073003;28;19920;-66
2024/03/23 12:56:30;;;;;;;;;;;;;;;19.15;52.58;98395.66;5055672;28;19927;-65